sensor_id;sensor_type;location;lat;lon;timestamp;pressure;altitude;pressure_sealevel;temperature;humidity
62980;BME280;49075;53.988;27.678;2022-11-20T00:04:18;987.4;;;-6.1;74.7
62980;BME280;49075;53.988;27.678;2022-11-20T00:09:56;987.2;;;-6;74.5
62980;BME280;49075;53.988;27.678;2022-11-20T00:14:56;987.1;;;-5.9;74.4
62980;BME280;49075;53.988;27.678;2022-11-20T00:19:30;987.3;;;-5.9;74.1
62980;BME280;49075;53.988;27.678;2022-11-20T00:24:54;987.4;;;-5.9;74.1
62980;BME280;49075;53.988;27.678;2022-11-20T00:29:54;987.6;;;-5.9;74.2
62980;BME280;49075;53.988;27.678;2022-11-20T00:34:54;987.6;;;-6;74.3
62980;BME280;49075;53.988;27.678;2022-11-20T00:39:10;987.7;;;-5.9;74
62980;BME280;49075;53.988;27.678;2022-11-20T00:44:44;987.7;;;-6;73.8
62980;BME280;49075;53.988;27.678;2022-11-20T00:49:42;987.8;;;-6;73.5
62980;BME280;49075;53.988;27.678;2022-11-20T00:54:56;987.8;;;-5.9;72.8
62980;BME280;49075;53.988;27.678;2022-11-20T00:59:20;987.9;;;-6;72
62980;BME280;49075;53.988;27.678;2022-11-20T01:04:40;987.9;;;-6;71.3
62980;BME280;49075;53.988;27.678;2022-11-20T01:09:54;987.9;;;-6;71.6
62980;BME280;49075;53.988;27.678;2022-11-20T01:14:54;987.9;;;-5.9;71.3
62980;BME280;49075;53.988;27.678;2022-11-20T01:19:22;987.8;;;-5.8;71.5
62980;BME280;49075;53.988;27.678;2022-11-20T01:24:42;987.7;;;-5.7;71.4
62980;BME280;49075;53.988;27.678;2022-11-20T01:29:12;987.9;;;-5.7;71.4
62980;BME280;49075;53.988;27.678;2022-11-20T01:34:22;988;;;-5.7;71.5
62980;BME280;49075;53.988;27.678;2022-11-20T01:39:34;988;;;-5.8;71.4
62980;BME280;49075;53.988;27.678;2022-11-20T01:44:49;988;;;-5.9;71.4
62980;BME280;49075;53.988;27.678;2022-11-20T01:49:47;988;;;-6;70.8
62980;BME280;49075;53.988;27.678;2022-11-20T01:54:47;988;;;-6;71.1
62980;BME280;49075;53.988;27.678;2022-11-20T01:59:22;988.1;;;-6;70.3
62980;BME280;49075;53.988;27.678;2022-11-20T02:05:01;988.1;;;-6;70.4
62980;BME280;49075;53.988;27.678;2022-11-20T02:10:00;988;;;-6;70.5
62980;BME280;49075;53.988;27.678;2022-11-20T02:14:32;988;;;-6;70.9
62980;BME280;49075;53.988;27.678;2022-11-20T02:19:44;987.9;;;-6.1;70.5
62980;BME280;49075;53.988;27.678;2022-11-20T02:24:21;988;;;-6.1;71
62980;BME280;49075;53.988;27.678;2022-11-20T02:29:55;988;;;-6.1;70
62980;BME280;49075;53.988;27.678;2022-11-20T02:34:22;988.1;;;-6;70.4
62980;BME280;49075;53.988;27.678;2022-11-20T02:39:44;988.2;;;-6.2;69.8
62980;BME280;49075;53.988;27.678;2022-11-20T02:44:30;988.2;;;-6.2;69.9
62980;BME280;49075;53.988;27.678;2022-11-20T02:49:22;988.2;;;-6.1;69.9
62980;BME280;49075;53.988;27.678;2022-11-20T02:54:22;988.1;;;-5.9;70
62980;BME280;49075;53.988;27.678;2022-11-20T02:59:44;988.1;;;-6;70
62980;BME280;49075;53.988;27.678;2022-11-20T03:04:44;988.1;;;-6;70.4
62980;BME280;49075;53.988;27.678;2022-11-20T03:09:44;988.1;;;-5.9;70.3
62980;BME280;49075;53.988;27.678;2022-11-20T03:14:34;988.1;;;-5.9;70.3
62980;BME280;49075;53.988;27.678;2022-11-20T03:19:58;988.1;;;-5.8;70.3
62980;BME280;49075;53.988;27.678;2022-11-20T03:24:58;988.2;;;-5.9;70
62980;BME280;49075;53.988;27.678;2022-11-20T03:29:58;988.2;;;-5.9;69.9
62980;BME280;49075;53.988;27.678;2022-11-20T03:34:42;988.3;;;-6;68.9
62980;BME280;49075;53.988;27.678;2022-11-20T03:39:22;988.4;;;-5.9;69
62980;BME280;49075;53.988;27.678;2022-11-20T03:44:57;988.4;;;-6;68.7
62980;BME280;49075;53.988;27.678;2022-11-20T03:49:34;988.5;;;-6;69.2
62980;BME280;49075;53.988;27.678;2022-11-20T03:54:44;988.5;;;-6.1;69.1
62980;BME280;49075;53.988;27.678;2022-11-20T03:59:22;988.6;;;-6;69.5
62980;BME280;49075;53.988;27.678;2022-11-20T04:04:22;988.6;;;-6.2;69.1
62980;BME280;49075;53.988;27.678;2022-11-20T04:09:32;988.5;;;-6.1;69.6
62980;BME280;49075;53.988;27.678;2022-11-20T04:14:44;988.5;;;-6.2;69.4
62980;BME280;49075;53.988;27.678;2022-11-20T04:19:44;988.5;;;-6.2;69.5
62980;BME280;49075;53.988;27.678;2022-11-20T04:24:42;988.5;;;-6.2;69.5
62980;BME280;49075;53.988;27.678;2022-11-20T04:29:58;988.6;;;-6.2;69.2
62980;BME280;49075;53.988;27.678;2022-11-20T04:34:58;988.6;;;-6.3;69.3
62980;BME280;49075;53.988;27.678;2022-11-20T04:39:56;988.6;;;-6.2;68.9
62980;BME280;49075;53.988;27.678;2022-11-20T04:44:30;988.5;;;-6.2;69
62980;BME280;49075;53.988;27.678;2022-11-20T04:49:31;988.5;;;-6.3;68.9
62980;BME280;49075;53.988;27.678;2022-11-20T04:54:58;988.5;;;-6.4;69.5
62980;BME280;49075;53.988;27.678;2022-11-20T04:59:58;988.6;;;-6.9;69.9
62980;BME280;49075;53.988;27.678;2022-11-20T05:04:34;988.5;;;-6.8;70.1
62980;BME280;49075;53.988;27.678;2022-11-20T05:09:44;988.6;;;-7.3;70.4
62980;BME280;49075;53.988;27.678;2022-11-20T05:14:30;988.9;;;-7.4;70.2
62980;BME280;49075;53.988;27.678;2022-11-20T05:19:22;988.9;;;-7.4;70.5
62980;BME280;49075;53.988;27.678;2022-11-20T05:24:22;988.8;;;-7.1;70
62980;BME280;49075;53.988;27.678;2022-11-20T05:29:44;988.9;;;-7.1;69.9
62980;BME280;49075;53.988;27.678;2022-11-20T05:34:42;988.9;;;-7;70.2
62980;BME280;49075;53.988;27.678;2022-11-20T05:39:44;988.9;;;-7;70.3
62980;BME280;49075;53.988;27.678;2022-11-20T05:44:22;989;;;-7.2;71
62980;BME280;49075;53.988;27.678;2022-11-20T05:49:56;989;;;-7.5;71.8
62980;BME280;49075;53.988;27.678;2022-11-20T05:54:56;989;;;-7.5;71.6
62980;BME280;49075;53.988;27.678;2022-11-20T05:59:30;989;;;-7.6;71.4
62980;BME280;49075;53.988;27.678;2022-11-20T06:04:44;988.9;;;-7.3;70.4
62980;BME280;49075;53.988;27.678;2022-11-20T06:09:22;989;;;-7.5;71.2
62980;BME280;49075;53.988;27.678;2022-11-20T06:14:58;989;;;-7.7;72.2
62980;BME280;49075;53.988;27.678;2022-11-20T06:19:34;988.9;;;-7.6;72
62980;BME280;49075;53.988;27.678;2022-11-20T06:24:44;989;;;-7.6;72.4
62980;BME280;49075;53.988;27.678;2022-11-20T06:29:30;989.1;;;-7.7;72.8
62980;BME280;49075;53.988;27.678;2022-11-20T06:34:22;989.1;;;-8;73.7
62980;BME280;49075;53.988;27.678;2022-11-20T06:39:22;989.1;;;-8;73.5
62980;BME280;49075;53.988;27.678;2022-11-20T06:44:34;989.2;;;-8;73.7
62980;BME280;49075;53.988;27.678;2022-11-20T06:49:24;989.3;;;-7.8;73.1
62980;BME280;49075;53.988;27.678;2022-11-20T06:54:46;989.4;;;-7.7;73.1
62980;BME280;49075;53.988;27.678;2022-11-20T06:59:32;989.4;;;-7.8;73.6
62980;BME280;49075;53.988;27.678;2022-11-20T07:05:00;989.3;;;-7.7;73
62980;BME280;49075;53.988;27.678;2022-11-20T07:10:00;989.4;;;-8;73.4
62980;BME280;49075;53.988;27.678;2022-11-20T07:15:00;989.4;;;-7.8;73
62980;BME280;49075;53.988;27.678;2022-11-20T07:19:46;989.3;;;-7.6;72.6
62980;BME280;49075;53.988;27.678;2022-11-20T07:24:22;989.4;;;-7.5;72.6
62980;BME280;49075;53.988;27.678;2022-11-20T07:30:00;989.4;;;-7.6;72.6
62980;BME280;49075;53.988;27.678;2022-11-20T07:34:34;989.4;;;-7.5;72.8
62980;BME280;49075;53.988;27.678;2022-11-20T07:40:00;989.4;;;-7.4;72.7
62980;BME280;49075;53.988;27.678;2022-11-20T07:44:32;989.4;;;-7.7;73.4
62980;BME280;49075;53.988;27.678;2022-11-20T07:49:22;989.4;;;-7.8;73.4
62980;BME280;49075;53.988;27.678;2022-11-20T07:54:34;989.4;;;-7.7;73.2
62980;BME280;49075;53.988;27.678;2022-11-20T07:59:44;989.4;;;-7.6;73.2
62980;BME280;49075;53.988;27.678;2022-11-20T08:04:24;989.4;;;-7.4;72.8
62980;BME280;49075;53.988;27.678;2022-11-20T08:09:46;989.4;;;-7.2;72.4
62980;BME280;49075;53.988;27.678;2022-11-20T08:14:34;989.3;;;-7.2;72.2
62980;BME280;49075;53.988;27.678;2022-11-20T08:19:58;989.2;;;-7.3;72.4
62980;BME280;49075;53.988;27.678;2022-11-20T08:24:58;989.2;;;-7;71.7
62980;BME280;49075;53.988;27.678;2022-11-20T08:29:30;989.2;;;-6.9;71.3
62980;BME280;49075;53.988;27.678;2022-11-20T08:34:32;989.3;;;-7.1;71.6
62980;BME280;49075;53.988;27.678;2022-11-20T08:40:00;989.3;;;-6.9;71.3
62980;BME280;49075;53.988;27.678;2022-11-20T08:45:00;989.4;;;-6.9;71.6
62980;BME280;49075;53.988;27.678;2022-11-20T08:49:58;989.4;;;-7.1;71.9
62980;BME280;49075;53.988;27.678;2022-11-20T08:54:58;989.3;;;-7.1;71.8
62980;BME280;49075;53.988;27.678;2022-11-20T08:59:40;989.2;;;-6.9;71.7
62980;BME280;49075;53.988;27.678;2022-11-20T09:04:56;989.2;;;-6.8;71.5
62980;BME280;49075;53.988;27.678;2022-11-20T09:09:14;989.2;;;-6.6;71.3
62980;BME280;49075;53.988;27.678;2022-11-20T09:14:46;989.2;;;-6.5;71.4
62980;BME280;49075;53.988;27.678;2022-11-20T09:19:58;989.1;;;-6.4;71
62980;BME280;49075;53.988;27.678;2022-11-20T09:24:58;989.1;;;-6.4;70.9
62980;BME280;49075;53.988;27.678;2022-11-20T09:29:52;989;;;-6.3;70.6
62980;BME280;49075;53.988;27.678;2022-11-20T09:34:40;989;;;-6.5;70.2
62980;BME280;49075;53.988;27.678;2022-11-20T09:39:30;989;;;-6.8;70.3
62980;BME280;49075;53.988;27.678;2022-11-20T09:44:48;988.9;;;-6.7;70.7
62980;BME280;49075;53.988;27.678;2022-11-20T09:49:32;988.9;;;-6.5;70.2
62980;BME280;49075;53.988;27.678;2022-11-20T09:54:54;988.9;;;-6.6;69.8
62980;BME280;49075;53.988;27.678;2022-11-20T09:59:34;988.9;;;-6.7;69.9
62980;BME280;49075;53.988;27.678;2022-11-20T10:04:56;988.8;;;-6.4;70
62980;BME280;49075;53.988;27.678;2022-11-20T10:09:29;988.9;;;-6.4;69.9
62980;BME280;49075;53.988;27.678;2022-11-20T10:14:59;988.8;;;-6.4;70.2
62980;BME280;49075;53.988;27.678;2022-11-20T10:19:56;988.8;;;-6.6;70.2
62980;BME280;49075;53.988;27.678;2022-11-20T10:24:44;988.8;;;-6.5;69.6
62980;BME280;49075;53.988;27.678;2022-11-20T10:29:43;988.7;;;-6.6;69.1
62980;BME280;49075;53.988;27.678;2022-11-20T10:34:56;988.8;;;-6.4;69.2
62980;BME280;49075;53.988;27.678;2022-11-20T10:39:58;988.7;;;-6.6;69
62980;BME280;49075;53.988;27.678;2022-11-20T10:44:21;988.7;;;-6.6;68.7
62980;BME280;49075;53.988;27.678;2022-11-20T10:49:43;988.7;;;-6.4;68.2
62980;BME280;49075;53.988;27.678;2022-11-20T10:54:32;988.6;;;-6.4;68.9
62980;BME280;49075;53.988;27.678;2022-11-20T10:59:49;988.6;;;-6.5;68.4
62980;BME280;49075;53.988;27.678;2022-11-20T11:04:30;988.7;;;-6.3;68.8
62980;BME280;49075;53.988;27.678;2022-11-20T11:09:19;988.6;;;-6.4;68.7
62980;BME280;49075;53.988;27.678;2022-11-20T11:14:30;988.6;;;-6.3;69.1
62980;BME280;49075;53.988;27.678;2022-11-20T11:19:57;988.6;;;-6.4;69.5
62980;BME280;49075;53.988;27.678;2022-11-20T11:24:56;988.6;;;-6.4;69.4
62980;BME280;49075;53.988;27.678;2022-11-20T11:30:26;988.6;;;-6.5;69.2
62980;BME280;49075;53.988;27.678;2022-11-20T11:34:58;988.7;;;-6.6;69.5
62980;BME280;49075;53.988;27.678;2022-11-20T11:39:44;988.7;;;-6.8;69.7
62980;BME280;49075;53.988;27.678;2022-11-20T11:44:45;988.7;;;-6.7;69.4
62980;BME280;49075;53.988;27.678;2022-11-20T11:50:28;988.7;;;-6.6;69.6
62980;BME280;49075;53.988;27.678;2022-11-20T11:54:59;988.8;;;-6.5;69.6
62980;BME280;49075;53.988;27.678;2022-11-20T11:59:24;988.8;;;-6.4;69.5
62980;BME280;49075;53.988;27.678;2022-11-20T12:04:49;988.8;;;-6.4;69.6
62980;BME280;49075;53.988;27.678;2022-11-20T12:09:10;988.8;;;-6.2;69.6
62980;BME280;49075;53.988;27.678;2022-11-20T12:14:45;988.8;;;-6.1;69.6
62980;BME280;49075;53.988;27.678;2022-11-20T12:19:58;988.8;;;-6;69.5
62980;BME280;49075;53.988;27.678;2022-11-20T12:24:59;988.7;;;-6.1;69.7
62980;BME280;49075;53.988;27.678;2022-11-20T12:29:37;988.8;;;-6.1;69.9
62980;BME280;49075;53.988;27.678;2022-11-20T12:35:00;988.7;;;-6.4;70.7
62980;BME280;49075;53.988;27.678;2022-11-20T12:39:34;988.7;;;-6.4;70.7
62980;BME280;49075;53.988;27.678;2022-11-20T12:45:02;988.6;;;-6.4;71
62980;BME280;49075;53.988;27.678;2022-11-20T12:49:33;988.4;;;-6.3;70.6
62980;BME280;49075;53.988;27.678;2022-11-20T12:55:08;988.4;;;-6.4;70.7
62980;BME280;49075;53.988;27.678;2022-11-20T12:59:27;988.3;;;-6.2;70.2
62980;BME280;49075;53.988;27.678;2022-11-20T13:05:04;988.3;;;-6.3;70.2
62980;BME280;49075;53.988;27.678;2022-11-20T13:09:58;988.2;;;-6.4;70.5
62980;BME280;49075;53.988;27.678;2022-11-20T13:14:26;988.3;;;-6.3;70.4
62980;BME280;49075;53.988;27.678;2022-11-20T13:19:56;988.3;;;-6.5;70.6
62980;BME280;49075;53.988;27.678;2022-11-20T13:24:49;988.3;;;-6.6;70.3
62980;BME280;49075;53.988;27.678;2022-11-20T13:29:45;988.3;;;-6.6;69.9
62980;BME280;49075;53.988;27.678;2022-11-20T13:34:28;988.3;;;-6.4;69.9
62980;BME280;49075;53.988;27.678;2022-11-20T13:39:24;988.3;;;-6.4;69.6
62980;BME280;49075;53.988;27.678;2022-11-20T13:44:44;988.2;;;-6.5;70
62980;BME280;49075;53.988;27.678;2022-11-20T13:49:55;988.3;;;-6.4;69.9
62980;BME280;49075;53.988;27.678;2022-11-20T13:59:56;988.2;;;-6.3;69.7
62980;BME280;49075;53.988;27.678;2022-11-20T14:04:22;988.1;;;-6.3;69.8
62980;BME280;49075;53.988;27.678;2022-11-20T14:09:49;988.1;;;-6.2;69.6
62980;BME280;49075;53.988;27.678;2022-11-20T14:14:32;988.1;;;-6.3;70.1
62980;BME280;49075;53.988;27.678;2022-11-20T14:19:40;988;;;-6.3;70.2
62980;BME280;49075;53.988;27.678;2022-11-20T14:25:01;988;;;-6.3;70.5
62980;BME280;49075;53.988;27.678;2022-11-20T14:29:19;987.9;;;-6.1;70.1
62980;BME280;49075;53.988;27.678;2022-11-20T14:34:52;987.9;;;-6.1;70.2
62980;BME280;49075;53.988;27.678;2022-11-20T14:39:42;987.8;;;-6.1;70.3
62980;BME280;49075;53.988;27.678;2022-11-20T14:44:44;987.7;;;-6;70.2
62980;BME280;49075;53.988;27.678;2022-11-20T14:49:29;987.7;;;-6;70.3
62980;BME280;49075;53.988;27.678;2022-11-20T14:54:20;987.6;;;-6.2;70.6
62980;BME280;49075;53.988;27.678;2022-11-20T14:59:31;987.6;;;-6.2;70.5
62980;BME280;49075;53.988;27.678;2022-11-20T15:04:58;987.6;;;-6.1;70.3
62980;BME280;49075;53.988;27.678;2022-11-20T15:09:18;987.5;;;-6.1;70.3
62980;BME280;49075;53.988;27.678;2022-11-20T15:14:52;987.5;;;-6;69.9
62980;BME280;49075;53.988;27.678;2022-11-20T15:19:54;987.4;;;-6.1;70
62980;BME280;49075;53.988;27.678;2022-11-20T15:24:42;987.4;;;-6.1;69.9
62980;BME280;49075;53.988;27.678;2022-11-20T15:29:11;987.3;;;-6.1;70.1
62980;BME280;49075;53.988;27.678;2022-11-20T15:34:40;987.3;;;-6.2;70.1
62980;BME280;49075;53.988;27.678;2022-11-20T15:39:48;987.3;;;-6.2;70.1
62980;BME280;49075;53.988;27.678;2022-11-20T15:44:20;987.2;;;-6.2;70.4
62980;BME280;49075;53.988;27.678;2022-11-20T15:49:54;987.2;;;-6.3;70.6
62980;BME280;49075;53.988;27.678;2022-11-20T15:54:40;987.2;;;-6.2;70.7
62980;BME280;49075;53.988;27.678;2022-11-20T15:59:42;987.2;;;-6.3;71
62980;BME280;49075;53.988;27.678;2022-11-20T16:04:16;987.2;;;-6.4;71.4
62980;BME280;49075;53.988;27.678;2022-11-20T16:09:18;987.2;;;-6.4;71.4
62980;BME280;49075;53.988;27.678;2022-11-20T16:14:29;987.3;;;-6.5;72.1
62980;BME280;49075;53.988;27.678;2022-11-20T16:19:52;987.2;;;-6.6;72.2
62980;BME280;49075;53.988;27.678;2022-11-20T16:24:18;987.1;;;-6.8;72.6
62980;BME280;49075;53.988;27.678;2022-11-20T16:29:52;987.1;;;-6.7;71.9
62980;BME280;49075;53.988;27.678;2022-11-20T16:34:30;986.9;;;-6.6;71.6
62980;BME280;49075;53.988;27.678;2022-11-20T16:39:40;986.9;;;-6.6;71.4
62980;BME280;49075;53.988;27.678;2022-11-20T16:44:30;986.9;;;-6.7;71.8
62980;BME280;49075;53.988;27.678;2022-11-20T16:49:39;986.9;;;-6.6;71.5
62980;BME280;49075;53.988;27.678;2022-11-20T16:54:52;986.8;;;-6.7;71.7
62980;BME280;49075;53.988;27.678;2022-11-20T16:59:26;986.7;;;-6.6;71.7
62980;BME280;49075;53.988;27.678;2022-11-20T17:04:46;986.8;;;-6.6;71.5
62980;BME280;49075;53.988;27.678;2022-11-20T17:09:36;986.8;;;-6.7;72.1
62980;BME280;49075;53.988;27.678;2022-11-20T17:14:42;986.7;;;-6.8;72.5
62980;BME280;49075;53.988;27.678;2022-11-20T17:19:18;986.6;;;-6.7;72.3
62980;BME280;49075;53.988;27.678;2022-11-20T17:24:52;986.6;;;-6.8;72.7
62980;BME280;49075;53.988;27.678;2022-11-20T17:29:18;986.5;;;-6.8;72.9
62980;BME280;49075;53.988;27.678;2022-11-20T17:34:50;986.6;;;-6.9;73.5
62980;BME280;49075;53.988;27.678;2022-11-20T17:39:18;986.6;;;-6.8;73.3
62980;BME280;49075;53.988;27.678;2022-11-20T17:44:52;986.7;;;-6.8;73.2
62980;BME280;49075;53.988;27.678;2022-11-20T17:49:30;986.7;;;-6.9;73.9
62980;BME280;49075;53.988;27.678;2022-11-20T17:54:18;986.7;;;-6.9;74
62980;BME280;49075;53.988;27.678;2022-11-20T17:59:30;986.6;;;-6.7;73.5
62980;BME280;49075;53.988;27.678;2022-11-20T18:04:38;986.5;;;-6.7;73.4
62980;BME280;49075;53.988;27.678;2022-11-20T18:09:40;986.4;;;-6.7;73.8
62980;BME280;49075;53.988;27.678;2022-11-20T18:14:10;986.2;;;-6.5;73.3
62980;BME280;49075;53.988;27.678;2022-11-20T18:19:21;986.2;;;-6.6;73.9
62980;BME280;49075;53.988;27.678;2022-11-20T18:24:52;986.3;;;-6.6;74.1
62980;BME280;49075;53.988;27.678;2022-11-20T18:29:44;986.4;;;-6.7;74.7
62980;BME280;49075;53.988;27.678;2022-11-20T18:34:52;986.4;;;-6.8;75.3
62980;BME280;49075;53.988;27.678;2022-11-20T18:39:52;986.3;;;-6.7;74.9
62980;BME280;49075;53.988;27.678;2022-11-20T18:44:19;986.3;;;-6.9;75.8
62980;BME280;49075;53.988;27.678;2022-11-20T18:49:53;986.3;;;-6.7;75.2
62980;BME280;49075;53.988;27.678;2022-11-20T18:54:29;986.3;;;-6.8;75.4
62980;BME280;49075;53.988;27.678;2022-11-20T18:59:53;986.3;;;-6.7;75.1
62980;BME280;49075;53.988;27.678;2022-11-20T19:04:19;986.3;;;-6.7;75.4
62980;BME280;49075;53.988;27.678;2022-11-20T19:09:28;986.2;;;-6.6;75.1
62980;BME280;49075;53.988;27.678;2022-11-20T19:14:28;986.3;;;-6.6;75.1
62980;BME280;49075;53.988;27.678;2022-11-20T19:19:31;986.3;;;-6.6;74.9
62980;BME280;49075;53.988;27.678;2022-11-20T19:24:40;986.2;;;-6.5;74.7
62980;BME280;49075;53.988;27.678;2022-11-20T19:29:21;986.2;;;-6.6;75.1
62980;BME280;49075;53.988;27.678;2022-11-20T19:34:54;986.2;;;-6.7;75.9
62980;BME280;49075;53.988;27.678;2022-11-20T19:39:52;986.2;;;-6.7;75.6
62980;BME280;49075;53.988;27.678;2022-11-20T19:44:42;986.2;;;-6.6;75.7
62980;BME280;49075;53.988;27.678;2022-11-20T19:49:26;986.2;;;-6.6;75.6
62980;BME280;49075;53.988;27.678;2022-11-20T19:54:08;986.2;;;-6.6;75.6
62980;BME280;49075;53.988;27.678;2022-11-20T19:59:20;986.1;;;-6.5;75.2
62980;BME280;49075;53.988;27.678;2022-11-20T20:04:50;986.1;;;-6.4;75.2
62980;BME280;49075;53.988;27.678;2022-11-20T20:09:26;986;;;-6.6;75.6
62980;BME280;49075;53.988;27.678;2022-11-20T20:14:54;985.9;;;-6.6;75.7
62980;BME280;49075;53.988;27.678;2022-11-20T20:19:18;985.9;;;-6.8;76
62980;BME280;49075;53.988;27.678;2022-11-20T20:24:20;985.7;;;-6.6;75.6
62980;BME280;49075;53.988;27.678;2022-11-20T20:29:30;985.6;;;-6.6;75.3
62980;BME280;49075;53.988;27.678;2022-11-20T20:34:38;985.5;;;-6.7;75.6
62980;BME280;49075;53.988;27.678;2022-11-20T20:39:40;985.4;;;-6.8;75.9
62980;BME280;49075;53.988;27.678;2022-11-20T20:44:18;985.5;;;-6.9;76.5
62980;BME280;49075;53.988;27.678;2022-11-20T20:49:52;985.5;;;-6.7;75.7
62980;BME280;49075;53.988;27.678;2022-11-20T20:54:53;985.5;;;-6.7;75.6
62980;BME280;49075;53.988;27.678;2022-11-20T20:59:22;985.4;;;-6.6;75.2
62980;BME280;49075;53.988;27.678;2022-11-20T21:04:28;985.4;;;-6.7;75.6
62980;BME280;49075;53.988;27.678;2022-11-20T21:09:20;985.4;;;-6.8;75.9
62980;BME280;49075;53.988;27.678;2022-11-20T21:14:11;985.4;;;-6.9;76.1
62980;BME280;49075;53.988;27.678;2022-11-20T21:19:52;985.5;;;-7;76.4
62980;BME280;49075;53.988;27.678;2022-11-20T21:24:41;985.4;;;-7;76.3
62980;BME280;49075;53.988;27.678;2022-11-20T21:29:54;985.5;;;-6.9;75.9
62980;BME280;49075;53.988;27.678;2022-11-20T21:34:32;985.5;;;-6.9;76
62980;BME280;49075;53.988;27.678;2022-11-20T21:39:31;985.4;;;-7;76.2
62980;BME280;49075;53.988;27.678;2022-11-20T21:44:31;985.4;;;-7;76.2
62980;BME280;49075;53.988;27.678;2022-11-20T21:49:41;985.4;;;-7.2;76.9
62980;BME280;49075;53.988;27.678;2022-11-20T21:54:45;985.4;;;-6.9;75.8
62980;BME280;49075;53.988;27.678;2022-11-20T21:59:17;985.5;;;-6.9;75.7
62980;BME280;49075;53.988;27.678;2022-11-20T22:04:31;985.4;;;-7;75.9
62980;BME280;49075;53.988;27.678;2022-11-20T22:09:53;985.4;;;-7.1;76.3
62980;BME280;49075;53.988;27.678;2022-11-20T22:14:53;985.4;;;-7;76
62980;BME280;49075;53.988;27.678;2022-11-20T22:19:25;985.4;;;-6.9;75.6
62980;BME280;49075;53.988;27.678;2022-11-20T22:24:39;985.2;;;-6.9;75.7
62980;BME280;49075;53.988;27.678;2022-11-20T22:29:35;985.1;;;-7.1;76.4
62980;BME280;49075;53.988;27.678;2022-11-20T22:34:51;985.1;;;-7.3;76.9
62980;BME280;49075;53.988;27.678;2022-11-20T22:39:29;985;;;-7;76.1
62980;BME280;49075;53.988;27.678;2022-11-20T22:44:39;984.9;;;-7.2;76.5
62980;BME280;49075;53.988;27.678;2022-11-20T22:49:27;984.9;;;-7.2;76.8
62980;BME280;49075;53.988;27.678;2022-11-20T22:54:29;984.9;;;-7.1;76.1
62980;BME280;49075;53.988;27.678;2022-11-20T22:59:17;984.9;;;-7.2;76.4
62980;BME280;49075;53.988;27.678;2022-11-20T23:04:29;985;;;-7.3;76.9
62980;BME280;49075;53.988;27.678;2022-11-20T23:09:39;985;;;-7.1;76
62980;BME280;49075;53.988;27.678;2022-11-20T23:14:37;985;;;-7.2;76.2
62980;BME280;49075;53.988;27.678;2022-11-20T23:19:41;984.9;;;-7.3;76.4
62980;BME280;49075;53.988;27.678;2022-11-20T23:24:51;984.8;;;-7.2;76.3
62980;BME280;49075;53.988;27.678;2022-11-20T23:29:37;984.5;;;-7.1;75.7
62980;BME280;49075;53.988;27.678;2022-11-20T23:34:39;984.5;;;-7.1;75.7
62980;BME280;49075;53.988;27.678;2022-11-20T23:39:39;984.5;;;-7.3;76.4
62980;BME280;49075;53.988;27.678;2022-11-20T23:44:51;984.4;;;-7.5;77
62980;BME280;49075;53.988;27.678;2022-11-20T23:49:51;984.3;;;-7.3;76.4
62980;BME280;49075;53.988;27.678;2022-11-20T23:54:17;984.3;;;-7.4;76.7
62980;BME280;49075;53.988;27.678;2022-11-20T23:59:29;984.2;;;-7.4;76.5
